createdAt,value
2022-12-19T00:01:00.926Z,-1.88
2022-12-19T00:01:52.820Z,-1.87
2022-12-19T00:02:53.151Z,-1.82
2022-12-19T00:03:54.174Z,-1.82
2022-12-19T00:04:52.653Z,-1.85
2022-12-19T00:05:52.686Z,-1.81
2022-12-19T00:06:52.659Z,-1.79
2022-12-19T00:07:52.778Z,-1.79
2022-12-19T00:08:53.355Z,-1.76
2022-12-19T00:09:52.662Z,-1.75
2022-12-19T00:10:56.379Z,-1.77
2022-12-19T00:11:53.065Z,-1.77
2022-12-19T00:12:53.142Z,-1.75
2022-12-19T00:13:53.354Z,-1.76
2022-12-19T00:14:53.039Z,-1.75
2022-12-19T00:15:53.661Z,-1.76
2022-12-19T00:16:53.571Z,-1.77
2022-12-19T00:17:53.548Z,-1.75
2022-12-19T00:18:55.357Z,-1.74
2022-12-19T00:19:53.570Z,-1.69
2022-12-19T00:20:54.297Z,-1.68
2022-12-19T00:21:53.645Z,-1.7
2022-12-19T00:22:53.600Z,-1.73
2022-12-19T00:23:53.879Z,-1.72
2022-12-19T00:24:53.617Z,-1.7
2022-12-19T00:25:53.695Z,-1.69
2022-12-19T00:26:53.627Z,-1.69
2022-12-19T00:27:53.779Z,-1.71
2022-12-19T00:28:58.011Z,-1.7
2022-12-19T00:29:54.656Z,-1.7
2022-12-19T00:30:55.654Z,-1.67
2022-12-19T00:31:54.745Z,-1.64
2022-12-19T00:32:55.692Z,-1.68
2022-12-19T00:33:54.972Z,-1.68
2022-12-19T00:34:54.727Z,-1.66
2022-12-19T00:36:01.148Z,-1.65
2022-12-19T00:36:57.831Z,-1.61
2022-12-19T00:37:57.885Z,-1.62
2022-12-19T00:38:58.698Z,-1.6
2022-12-19T00:39:57.863Z,-1.58
2022-12-19T00:41:06.494Z,-1.59
2022-12-19T00:41:58.163Z,-1.64
2022-12-19T00:42:58.184Z,-1.63
2022-12-19T00:44:00.088Z,-1.63
2022-12-19T00:44:58.265Z,-1.6
2022-12-19T00:45:58.237Z,-1.59
2022-12-19T00:46:58.216Z,-1.62
2022-12-19T00:47:58.241Z,-1.54
2022-12-19T00:48:58.763Z,-1.56
2022-12-19T00:49:58.238Z,-1.55
2022-12-19T00:50:59.093Z,-1.57
2022-12-19T00:51:58.230Z,-1.55
2022-12-19T00:52:58.284Z,-1.54
2022-12-19T00:53:58.879Z,-1.54
2022-12-19T00:54:58.417Z,-1.54
2022-12-19T00:56:01.793Z,-1.53
2022-12-19T00:56:58.424Z,-1.51
2022-12-19T00:57:59.608Z,-1.53
2022-12-19T00:58:58.520Z,-1.52
2022-12-19T00:59:58.501Z,-1.53
2022-12-19T01:00:58.757Z,-1.53
2022-12-19T01:01:59.152Z,-1.53
2022-12-19T01:02:58.777Z,-1.5
2022-12-19T01:04:27.050Z,-1.51
2022-12-19T01:05:00.128Z,-1.54
2022-12-19T01:06:00.230Z,-1.53
2022-12-19T01:07:02.541Z,-1.53
2022-12-19T01:08:00.207Z,-1.49
2022-12-19T01:09:00.168Z,-1.51
2022-12-19T01:10:00.192Z,-1.54
2022-12-19T01:11:00.337Z,-1.51
2022-12-19T01:12:00.224Z,-1.48
2022-12-19T01:13:00.265Z,-1.51
2022-12-19T01:14:00.224Z,-1.51
2022-12-19T01:15:04.051Z,-1.51
2022-12-19T01:16:05.819Z,-1.48
2022-12-19T01:17:02.100Z,-1.49
2022-12-19T01:18:02.170Z,-1.49
2022-12-19T01:19:02.116Z,-1.48
2022-12-19T01:20:02.173Z,-1.43
2022-12-19T01:21:03.469Z,-1.41
2022-12-19T01:22:02.181Z,-1.38
2022-12-19T01:23:02.147Z,-1.43
2022-12-19T01:24:02.588Z,-1.44
2022-12-19T01:25:02.196Z,-1.41
2022-12-19T01:26:02.198Z,-1.43
2022-12-19T01:27:02.222Z,-1.44
2022-12-19T01:28:02.472Z,-1.45
2022-12-19T01:29:02.254Z,-1.41
2022-12-19T01:30:02.420Z,-1.43
2022-12-19T01:31:05.103Z,-1.42
2022-12-19T01:32:02.501Z,-1.44
2022-12-19T01:33:02.706Z,-1.42
2022-12-19T01:34:02.490Z,-1.42
2022-12-19T01:35:02.761Z,-1.39
2022-12-19T01:36:05.865Z,-1.39
2022-12-19T01:37:02.495Z,-1.42
2022-12-19T01:38:08.427Z,-1.39
2022-12-19T01:39:04.929Z,-1.36
2022-12-19T01:40:05.421Z,-1.39
2022-12-19T01:41:05.146Z,-1.4
2022-12-19T01:44:08.855Z,-1.4
2022-12-19T01:46:14.457Z,-1.37
2022-12-19T01:47:13.391Z,-1.37
2022-12-19T01:48:17.291Z,-1.35
2022-12-19T01:49:22.994Z,-1.37
2022-12-19T01:50:23.375Z,-1.37
2022-12-19T01:51:22.123Z,-1.35
2022-12-19T01:52:23.526Z,-1.33
2022-12-19T01:53:22.933Z,-1.34
2022-12-19T01:54:22.443Z,-1.37
2022-12-19T01:55:21.224Z,-1.37
2022-12-19T01:56:23.809Z,-1.37
2022-12-19T01:57:21.198Z,-1.35
2022-12-19T01:58:21.541Z,-1.37
2022-12-19T01:59:22.348Z,-1.37
2022-12-19T02:00:20.905Z,-1.37
2022-12-19T02:01:20.957Z,-1.36
2022-12-19T02:02:28.204Z,-1.32
2022-12-19T02:03:27.679Z,-1.32
2022-12-19T02:04:32.037Z,-1.34
2022-12-19T02:05:29.676Z,-1.34
2022-12-19T02:06:31.094Z,-1.32
2022-12-19T02:07:29.647Z,-1.33
2022-12-19T02:08:29.588Z,-1.33
2022-12-19T02:09:29.560Z,-1.3
2022-12-19T02:10:29.490Z,-1.3
2022-12-19T02:11:29.532Z,-1.3
2022-12-19T02:12:31.280Z,-1.25
2022-12-19T02:13:29.810Z,-1.29
2022-12-19T02:14:29.813Z,-1.26
2022-12-19T02:15:32.899Z,-1.27
2022-12-19T02:16:40.119Z,-1.26
2022-12-19T02:17:42.560Z,-1.27
2022-12-19T02:18:43.763Z,-1.25
2022-12-19T02:35:25.554Z,-1.24
2022-12-19T02:36:26.284Z,-1.2
2022-12-19T02:37:30.809Z,-1.22
2022-12-19T02:38:30.906Z,-1.21
2022-12-19T02:39:34.021Z,-1.22
2022-12-19T02:40:33.555Z,-1.23
2022-12-19T02:41:35.796Z,-1.19
2022-12-19T02:42:33.343Z,-1.2
2022-12-19T02:43:35.542Z,-1.18
2022-12-19T02:45:35.732Z,-1.2
2022-12-19T02:46:33.758Z,-1.21
2022-12-19T02:47:34.170Z,-1.22
2022-12-19T02:48:34.358Z,-1.16
2022-12-19T02:49:35.198Z,-1.14
2022-12-19T02:50:41.415Z,-1.13
2022-12-19T02:51:37.631Z,-1.14
2022-12-19T02:52:43.034Z,-1.16
2022-12-19T02:53:39.734Z,-1.14
2022-12-19T02:54:44.842Z,-1.11
2022-12-19T02:55:50.623Z,-1.11
2022-12-19T03:00:03.142Z,-1.07
2022-12-19T03:02:00.112Z,-1.01
2022-12-19T03:03:08.703Z,-0.99
2022-12-19T03:08:23.378Z,-0.85
2022-12-19T03:09:24.471Z,-0.85
2022-12-19T03:10:27.063Z,-0.85
2022-12-19T03:11:21.365Z,-0.84
2022-12-19T03:12:22.773Z,-0.88
2022-12-19T03:13:22.921Z,-0.91
2022-12-19T03:14:20.748Z,-0.8
2022-12-19T03:15:20.642Z,-0.77
2022-12-19T03:16:19.661Z,-0.79
2022-12-19T03:17:19.733Z,-0.77
2022-12-19T03:18:19.935Z,-0.78
2022-12-19T03:19:19.904Z,-0.77
2022-12-19T03:22:22.741Z,-0.77
2022-12-19T03:23:22.754Z,-0.77
2022-12-19T03:24:22.842Z,-0.76
2022-12-19T03:25:24.070Z,-0.73
2022-12-19T03:26:24.623Z,-0.74
2022-12-19T03:28:27.787Z,-0.7
2022-12-19T03:30:29.429Z,-0.64
2022-12-19T03:31:28.948Z,-0.6
2022-12-19T03:32:29.467Z,-0.62
2022-12-19T03:33:31.030Z,-0.63
2022-12-19T03:35:32.721Z,-0.66
2022-12-19T03:36:34.496Z,-0.69
2022-12-19T03:37:34.202Z,-0.67
2022-12-19T03:38:32.727Z,-0.71
2022-12-19T03:39:32.494Z,-0.67
2022-12-19T03:40:32.851Z,-0.68
2022-12-19T03:41:32.265Z,-0.65
2022-12-19T03:42:32.626Z,-0.62
2022-12-19T03:43:32.414Z,-0.59
2022-12-19T03:44:34.131Z,-0.57
2022-12-19T03:46:39.483Z,-0.54
2022-12-19T03:49:40.135Z,-0.5
2022-12-19T03:58:04.998Z,-0.51
2022-12-19T03:59:05.101Z,-0.54
2022-12-19T04:00:06.292Z,-0.55
2022-12-19T04:01:03.755Z,-0.58
2022-12-19T04:02:04.084Z,-0.6
2022-12-19T04:03:03.454Z,-0.58
2022-12-19T04:04:04.205Z,-0.62
2022-12-19T04:05:05.977Z,-0.58
2022-12-19T04:06:03.294Z,-0.62
2022-12-19T04:07:03.692Z,-0.63
2022-12-19T04:08:05.977Z,-0.62
2022-12-19T04:09:02.984Z,-0.61
2022-12-19T04:10:05.345Z,-0.59
2022-12-19T04:11:08.710Z,-0.6
2022-12-19T04:12:07.711Z,-0.62
2022-12-19T04:13:09.230Z,-0.57
2022-12-19T04:14:12.248Z,-0.6
2022-12-19T04:15:09.081Z,-0.57
2022-12-19T04:18:14.301Z,-0.63
2022-12-19T04:20:17.133Z,-0.62
2022-12-19T04:21:18.967Z,-0.64
2022-12-19T04:22:21.021Z,-0.58
2022-12-19T04:26:26.971Z,-0.54
2022-12-19T04:27:26.907Z,-0.55
2022-12-19T04:28:30.340Z,-0.59
2022-12-19T04:29:28.529Z,-0.62
2022-12-19T04:30:26.597Z,-0.61
2022-12-19T04:31:26.657Z,-0.63
2022-12-19T04:32:27.195Z,-0.62
2022-12-19T04:33:26.645Z,-0.61
2022-12-19T04:34:26.711Z,-0.63
2022-12-19T04:35:26.680Z,-0.64
2022-12-19T04:36:26.733Z,-0.64
2022-12-19T04:37:26.844Z,-0.59
2022-12-19T04:38:26.887Z,-0.64
2022-12-19T04:39:27.251Z,-0.62
2022-12-19T04:40:26.829Z,-0.63
2022-12-19T04:41:26.733Z,-0.61
2022-12-19T04:42:26.767Z,-0.57
2022-12-19T04:43:26.788Z,-0.56
2022-12-19T04:44:26.826Z,-0.58
2022-12-19T04:45:26.854Z,-0.58
2022-12-19T04:46:27.007Z,-0.56
2022-12-19T04:47:26.893Z,-0.53
2022-12-19T04:48:26.873Z,-0.52
2022-12-19T04:49:26.878Z,-0.57
2022-12-19T04:50:26.958Z,-0.58
2022-12-19T04:51:26.923Z,-0.55
2022-12-19T04:52:26.928Z,-0.56
2022-12-19T04:53:26.952Z,-0.56
2022-12-19T04:54:26.964Z,-0.56
2022-12-19T04:55:27.080Z,-0.57
2022-12-19T04:56:26.972Z,-0.56
2022-12-19T04:57:30.365Z,-0.55
2022-12-19T04:58:27.013Z,-0.54
2022-12-19T04:59:27.089Z,-0.5
2022-12-19T05:00:27.059Z,-0.56
2022-12-19T05:01:27.265Z,-0.58
2022-12-19T05:02:27.234Z,-0.59
2022-12-19T05:03:27.151Z,-0.62
2022-12-19T05:04:27.134Z,-0.62
2022-12-19T05:05:27.226Z,-0.6
2022-12-19T05:06:27.126Z,-0.6
2022-12-19T05:07:27.222Z,-0.56
2022-12-19T05:08:27.197Z,-0.58
2022-12-19T05:09:27.182Z,-0.59
2022-12-19T05:10:27.187Z,-0.55
2022-12-19T05:11:27.262Z,-0.56
2022-12-19T05:12:28.385Z,-0.57
2022-12-19T05:13:27.848Z,-0.59
2022-12-19T05:14:27.267Z,-0.58
2022-12-19T05:15:27.310Z,-0.62
2022-12-19T05:16:27.406Z,-0.6
2022-12-19T05:17:27.313Z,-0.61
2022-12-19T05:18:27.947Z,-0.64
2022-12-19T05:19:27.368Z,-0.63
2022-12-19T05:20:27.379Z,-0.65
2022-12-19T05:21:27.661Z,-0.67
2022-12-19T05:22:27.625Z,-0.64
2022-12-19T05:23:27.742Z,-0.61
2022-12-19T05:24:27.453Z,-0.59
2022-12-19T05:25:27.485Z,-0.63
2022-12-19T05:26:27.483Z,-0.66
2022-12-19T05:27:27.524Z,-0.66
2022-12-19T05:28:27.662Z,-0.59
2022-12-19T05:29:27.511Z,-0.58
2022-12-19T05:30:27.520Z,-0.6
2022-12-19T05:31:27.595Z,-0.61
2022-12-19T05:32:30.083Z,-0.66
2022-12-19T05:33:27.561Z,-0.66
2022-12-19T05:34:27.927Z,-0.6
2022-12-19T05:35:27.723Z,-0.65
2022-12-19T05:36:32.259Z,-0.68
2022-12-19T05:37:28.940Z,-0.72
2022-12-19T05:38:29.295Z,-0.74
2022-12-19T05:39:29.235Z,-0.7
2022-12-19T05:40:29.217Z,-0.73
2022-12-19T05:41:29.077Z,-0.75
2022-12-19T05:42:29.024Z,-0.71
2022-12-19T05:43:29.027Z,-0.75
2022-12-19T05:44:29.071Z,-0.79
2022-12-19T05:45:29.108Z,-0.76
2022-12-19T05:46:29.198Z,-0.73
2022-12-19T05:47:29.160Z,-0.67
2022-12-19T05:48:29.149Z,-0.66
2022-12-19T05:49:29.162Z,-0.68
2022-12-19T05:50:29.169Z,-0.71
2022-12-19T05:51:29.229Z,-0.68
2022-12-19T05:52:29.213Z,-0.72
2022-12-19T05:53:29.281Z,-0.7
2022-12-19T05:54:29.195Z,-0.67
2022-12-19T05:55:29.237Z,-0.67
2022-12-19T05:56:29.287Z,-0.66
2022-12-19T05:57:29.248Z,-0.63
2022-12-19T05:58:29.423Z,-0.62
2022-12-19T05:59:29.313Z,-0.63
2022-12-19T06:00:29.380Z,-0.62
2022-12-19T06:01:29.716Z,-0.64
2022-12-19T06:02:32.306Z,-0.61
2022-12-19T06:03:29.400Z,-0.61
2022-12-19T06:04:29.769Z,-0.66
2022-12-19T06:05:29.616Z,-0.66
2022-12-19T06:06:29.457Z,-0.66
2022-12-19T06:07:29.505Z,-0.6
2022-12-19T06:08:29.470Z,-0.59
2022-12-19T06:09:29.454Z,-0.59
2022-12-19T06:10:29.493Z,-0.62
2022-12-19T06:11:29.494Z,-0.64
2022-12-19T06:12:29.788Z,-0.63
2022-12-19T06:13:29.862Z,-0.61
2022-12-19T06:14:29.568Z,-0.62
2022-12-19T06:15:29.583Z,-0.62
2022-12-19T06:16:29.709Z,-0.62
2022-12-19T06:17:29.586Z,-0.64
2022-12-19T06:18:29.900Z,-0.65
2022-12-19T06:19:29.638Z,-0.64
2022-12-19T06:20:29.643Z,-0.65
2022-12-19T06:21:29.644Z,-0.69
2022-12-19T06:22:29.665Z,-0.71
2022-12-19T06:23:31.279Z,-0.67
2022-12-19T06:24:29.699Z,-0.67
2022-12-19T06:25:29.715Z,-0.7
2022-12-19T06:26:29.752Z,-0.7
2022-12-19T06:27:29.771Z,-0.72
2022-12-19T06:28:30.363Z,-0.74
2022-12-19T06:29:29.801Z,-0.73
2022-12-19T06:30:29.822Z,-0.74
2022-12-19T06:31:29.866Z,-0.72
2022-12-19T06:32:33.527Z,-0.74
2022-12-19T06:33:34.199Z,-0.73
2022-12-19T06:35:02.790Z,-0.74
2022-12-19T06:35:35.169Z,-0.75
2022-12-19T06:36:35.155Z,-0.77
2022-12-19T06:37:38.957Z,-0.77
2022-12-19T06:38:35.716Z,-0.8
2022-12-19T06:39:35.782Z,-0.81
2022-12-19T06:40:39.951Z,-0.81
2022-12-19T06:41:36.319Z,-0.76
2022-12-19T06:42:36.177Z,-0.81
2022-12-19T06:43:36.230Z,-0.84
2022-12-19T06:44:36.302Z,-0.82
2022-12-19T06:45:36.265Z,-0.82
2022-12-19T06:46:36.844Z,-0.84
2022-12-19T06:47:36.298Z,-0.85
2022-12-19T06:48:36.304Z,-0.87
2022-12-19T06:49:36.367Z,-0.87
2022-12-19T06:50:36.316Z,-0.87
2022-12-19T06:51:36.822Z,-0.91
2022-12-19T06:52:36.335Z,-0.93
2022-12-19T06:53:36.647Z,-0.95
2022-12-19T06:54:36.439Z,-0.98
2022-12-19T06:55:37.294Z,-0.97
2022-12-19T06:56:36.986Z,-1.03
2022-12-19T06:57:36.473Z,-1.07
2022-12-19T06:58:36.484Z,-1.04
2022-12-19T06:59:36.613Z,-1.09
2022-12-19T07:00:36.545Z,-1.08
2022-12-19T07:02:38.557Z,-1.1
2022-12-19T07:03:39.643Z,-1.12
2022-12-19T07:05:42.736Z,-1.14
2022-12-19T07:06:48.717Z,-1.13
2022-12-19T07:07:45.856Z,-1.16
2022-12-19T07:08:45.873Z,-1.15
2022-12-19T07:09:46.114Z,-1.14
2022-12-19T07:10:46.047Z,-1.19
2022-12-19T07:11:45.885Z,-1.18
2022-12-19T07:12:45.975Z,-1.24
2022-12-19T07:13:46.004Z,-1.23
2022-12-19T07:14:51.681Z,-1.26
2022-12-19T07:15:50.883Z,-1.27
2022-12-19T07:16:50.752Z,-1.26
2022-12-19T07:17:49.997Z,-1.3
2022-12-19T07:18:50.141Z,-1.32
2022-12-19T07:19:50.344Z,-1.34
2022-12-19T07:20:50.075Z,-1.36
2022-12-19T07:21:50.051Z,-1.38
2022-12-19T07:22:50.084Z,-1.39
2022-12-19T07:23:50.116Z,-1.41
2022-12-19T07:24:50.147Z,-1.4
2022-12-19T07:25:50.229Z,-1.43
2022-12-19T07:26:50.358Z,-1.41
2022-12-19T07:27:51.561Z,-1.36
2022-12-19T07:28:50.334Z,-1.44
2022-12-19T07:29:50.171Z,-1.47
2022-12-19T07:30:50.228Z,-1.47
2022-12-19T07:31:50.196Z,-1.41
2022-12-19T07:32:50.209Z,-1.44
2022-12-19T07:33:50.206Z,-1.5
2022-12-19T07:34:50.270Z,-1.47
2022-12-19T07:35:50.276Z,-1.51
2022-12-19T07:36:50.249Z,-1.48
2022-12-19T07:37:50.658Z,-1.48
2022-12-19T07:38:50.305Z,-1.46
2022-12-19T07:39:50.389Z,-1.51
2022-12-19T07:40:50.384Z,-1.5
2022-12-19T07:41:50.451Z,-1.5
2022-12-19T07:42:50.469Z,-1.55
2022-12-19T07:43:50.362Z,-1.54
2022-12-19T07:44:50.365Z,-1.56
2022-12-19T07:45:53.869Z,-1.54
2022-12-19T07:46:50.628Z,-1.52
2022-12-19T07:47:50.723Z,-1.5
2022-12-19T07:48:50.733Z,-1.53
2022-12-19T07:49:50.737Z,-1.56
2022-12-19T07:50:50.966Z,-1.55
2022-12-19T07:51:50.781Z,-1.32
2022-12-19T07:52:50.739Z,-1.51
2022-12-19T07:53:50.746Z,-1.52
2022-12-19T07:54:50.914Z,-1.53
2022-12-19T07:55:51.204Z,-1.52
2022-12-19T07:56:50.991Z,-1.57
2022-12-19T07:57:51.135Z,-1.61
2022-12-19T07:58:50.818Z,-1.61
2022-12-19T07:59:50.860Z,-1.6
2022-12-19T08:00:54.687Z,-1.63
2022-12-19T08:01:51.640Z,-1.61
2022-12-19T08:02:51.707Z,-1.61
2022-12-19T08:03:51.569Z,-1.67
2022-12-19T08:04:51.481Z,-1.66
2022-12-19T08:05:51.537Z,-1.67
2022-12-19T08:06:51.631Z,-1.7
2022-12-19T08:07:51.564Z,-1.72
2022-12-19T08:08:51.589Z,-1.74
2022-12-19T08:09:51.594Z,-1.72
2022-12-19T08:10:51.584Z,-1.77
2022-12-19T08:11:51.749Z,-1.78
2022-12-19T08:12:51.695Z,-1.75
2022-12-19T08:13:52.137Z,-1.78
2022-12-19T08:14:56.871Z,-1.84
2022-12-19T08:15:53.976Z,-1.82
2022-12-19T08:17:19.874Z,-1.86
2022-12-19T08:17:55.328Z,-1.87
2022-12-19T08:18:55.368Z,-1.86
2022-12-19T08:19:55.321Z,-1.85
2022-12-19T08:20:55.326Z,-1.86
2022-12-19T08:21:55.353Z,-1.89
2022-12-19T08:22:55.310Z,-1.88
2022-12-19T08:23:55.331Z,-1.93
2022-12-19T08:24:55.346Z,-1.98
2022-12-19T08:25:58.965Z,-2
2022-12-19T08:26:55.404Z,-2.02
2022-12-19T08:27:55.408Z,-2.03
2022-12-19T08:28:56.415Z,-2.01
2022-12-19T08:29:55.438Z,-2.03
2022-12-19T08:30:56.496Z,-2.02
2022-12-19T08:31:56.258Z,-2.01
2022-12-19T08:32:56.237Z,-2.05
2022-12-19T08:33:56.602Z,-2.08
2022-12-19T08:34:56.310Z,-2.08
2022-12-19T08:35:56.232Z,-2.09
2022-12-19T08:36:56.311Z,-2.05
2022-12-19T08:37:56.508Z,-2.06
2022-12-19T08:38:56.343Z,-2.07
2022-12-19T08:39:56.281Z,-2.09
2022-12-19T08:40:56.308Z,-2.1
2022-12-19T08:41:56.347Z,-2.07
2022-12-19T08:42:56.316Z,-2.06
2022-12-19T08:43:56.476Z,-2.04
2022-12-19T08:44:56.378Z,-2.1
2022-12-19T08:45:56.444Z,-2.11
2022-12-19T08:46:56.465Z,-2.11
2022-12-19T08:47:56.400Z,-2.06
2022-12-19T08:48:56.423Z,-2.1
2022-12-19T08:49:56.463Z,-2.1
2022-12-19T08:50:57.537Z,-2.1
2022-12-19T08:51:56.501Z,-2.13
2022-12-19T08:52:56.473Z,-2.13
2022-12-19T08:53:56.506Z,-2.14
2022-12-19T08:54:56.502Z,-2.15
2022-12-19T08:55:57.123Z,-2.13
2022-12-19T08:56:56.590Z,-2.1
2022-12-19T08:57:56.565Z,-2.13
2022-12-19T08:58:56.578Z,-2.15
2022-12-19T08:59:56.609Z,-2.15
2022-12-19T09:01:57.549Z,-2.15
2022-12-19T09:02:57.339Z,-2.15
2022-12-19T09:05:28.493Z,-2.14
2022-12-19T09:05:59.701Z,-2.19
2022-12-19T09:06:08.223Z,-2.22
2022-12-19T09:07:06.743Z,-2.22
2022-12-19T09:08:06.833Z,-2.2
2022-12-19T09:09:06.764Z,-2.2
2022-12-19T09:10:07.181Z,-2.24
2022-12-19T09:11:08.192Z,-2.24
2022-12-19T09:12:06.821Z,-2.25
2022-12-19T09:13:06.812Z,-2.29
2022-12-19T09:14:06.799Z,-2.29
2022-12-19T09:15:07.138Z,-2.27
2022-12-19T09:16:08.160Z,-2.26
2022-12-19T09:17:06.950Z,-2.31
2022-12-19T09:18:07.050Z,-2.33
2022-12-19T09:19:06.880Z,-2.35
2022-12-19T09:20:07.329Z,-2.32
2022-12-19T09:21:07.893Z,-2.35
2022-12-19T09:22:06.920Z,-2.36
2022-12-19T09:23:06.962Z,-2.37
2022-12-19T09:24:08.553Z,-2.41
2022-12-19T09:25:07.304Z,-2.41
2022-12-19T09:26:08.491Z,-2.42
2022-12-19T09:27:07.000Z,-2.41
2022-12-19T09:29:19.512Z,-2.46
2022-12-19T09:30:12.413Z,-2.46
2022-12-19T09:31:12.881Z,-2.45
2022-12-19T09:32:11.690Z,-2.52
2022-12-19T09:33:11.821Z,-2.53
2022-12-19T09:34:11.579Z,-2.45
2022-12-19T09:35:13.593Z,-2.51
2022-12-19T09:36:12.485Z,-2.52
2022-12-19T09:37:15.886Z,-2.51
2022-12-19T09:38:13.910Z,-2.54
2022-12-19T09:39:14.227Z,-2.5
2022-12-19T09:40:16.174Z,-2.53
2022-12-19T09:43:27.380Z,-2.61
2022-12-19T09:47:26.480Z,-2.62
2022-12-19T09:48:25.024Z,-2.56
2022-12-19T09:52:38.275Z,-2.59
2022-12-19T09:55:39.461Z,-2.59
2022-12-19T09:56:45.563Z,-2.55
2022-12-19T09:57:47.093Z,-2.62
2022-12-19T09:58:44.943Z,-2.61
2022-12-19T09:59:50.001Z,-2.61
2022-12-19T10:00:46.608Z,-2.64
2022-12-19T10:02:53.936Z,-2.6
2022-12-19T10:03:58.043Z,-2.63
2022-12-19T10:07:11.331Z,-2.65
2022-12-19T10:08:09.117Z,-2.69
2022-12-19T10:10:23.251Z,-2.67
2022-12-19T10:12:36.334Z,-2.69
2022-12-19T10:16:21.361Z,-2.75
2022-12-19T10:20:33.637Z,-2.69
2022-12-19T10:22:07.717Z,-2.67
2022-12-19T10:26:52.037Z,-2.7
2022-12-19T10:27:59.172Z,-2.69
2022-12-19T10:29:05.494Z,-2.72
2022-12-19T10:31:18.883Z,-2.72
2022-12-19T10:32:04.129Z,-2.71
2022-12-19T10:36:09.176Z,-2.77
2022-12-19T10:44:19.717Z,-2.77
2022-12-19T10:45:20.410Z,-2.74
2022-12-19T10:47:21.502Z,-2.7
2022-12-19T10:48:27.091Z,-2.71
2022-12-19T10:49:23.011Z,-2.79
2022-12-19T10:50:24.349Z,-2.82
2022-12-19T10:51:23.702Z,-2.85
2022-12-19T10:53:28.188Z,-2.81
2022-12-19T10:55:32.999Z,-2.83
2022-12-19T10:56:37.216Z,-2.86
2022-12-19T10:57:34.662Z,-2.85
2022-12-19T10:58:36.725Z,-2.89
2022-12-19T10:59:34.532Z,-2.89
2022-12-19T11:00:34.636Z,-2.84
2022-12-19T11:01:38.445Z,-2.88
2022-12-19T11:02:44.542Z,-2.87
2022-12-19T11:03:37.602Z,-2.87
2022-12-19T11:04:36.842Z,-2.86
2022-12-19T11:05:57.149Z,-2.81
2022-12-19T11:06:43.524Z,-2.84
2022-12-19T11:07:39.745Z,-2.86
2022-12-19T11:08:39.896Z,-2.84
2022-12-19T11:09:40.972Z,-2.87
2022-12-19T11:13:30.945Z,-2.89
2022-12-19T11:19:13.322Z,-2.86
2022-12-19T11:19:48.215Z,-2.91
2022-12-19T11:21:01.934Z,-2.9
2022-12-19T11:23:09.436Z,-2.92
2022-12-19T11:28:07.844Z,-2.9
2022-12-19T11:29:26.877Z,-2.93
2022-12-19T11:29:30.743Z,-2.94
2022-12-19T11:29:36.944Z,-2.91
2022-12-19T11:29:54.354Z,-2.91
2022-12-19T11:30:08.456Z,-2.94
2022-12-19T11:30:43.936Z,-2.95
2022-12-19T11:33:26.089Z,-3
2022-12-19T11:34:27.921Z,-2.99
2022-12-19T11:35:37.294Z,-2.96
2022-12-19T11:36:37.487Z,-2.98
2022-12-19T11:37:39.022Z,-3.02
2022-12-19T11:40:49.268Z,-3.03
2022-12-19T11:41:49.132Z,-3.08
2022-12-19T11:43:56.013Z,-3.09
2022-12-19T11:45:00.346Z,-3.06
2022-12-19T11:46:06.637Z,-3.1
2022-12-19T11:52:54.312Z,-3.19
2022-12-19T11:53:18.879Z,-3.21
2022-12-19T11:54:19.570Z,-3.25
2022-12-19T11:56:21.407Z,-3.29
2022-12-19T11:57:17.935Z,-3.29
2022-12-19T11:58:17.838Z,-3.36
2022-12-19T11:59:24.402Z,-3.37
2022-12-19T12:00:22.953Z,-3.33
2022-12-19T12:05:46.026Z,-3.35
2022-12-19T12:06:43.074Z,-3.37
2022-12-19T12:09:07.035Z,-3.37
2022-12-19T12:22:17.630Z,-3.47
2022-12-19T12:30:59.452Z,-3.56
2022-12-19T12:31:06.909Z,-3.59
2022-12-19T12:31:45.687Z,-3.67
2022-12-19T12:32:05.396Z,-3.69
2022-12-19T12:44:33.070Z,-3.9
2022-12-19T12:45:27.737Z,-3.85
2022-12-19T12:46:31.295Z,-3.92
2022-12-19T12:47:28.101Z,-4.01
2022-12-19T12:49:40.020Z,-3.96
2022-12-19T12:50:40.353Z,-3.97
2022-12-19T12:51:37.544Z,-3.95
2022-12-19T12:52:44.387Z,-4.04
2022-12-19T12:53:43.701Z,-4.09
2022-12-19T12:54:42.896Z,-4.12
2022-12-19T12:55:41.725Z,-4.12
2022-12-19T12:56:42.020Z,-4.11
2022-12-19T12:57:41.168Z,-4.15
2022-12-19T12:59:45.992Z,-4.12
2022-12-19T13:01:49.801Z,-4.18
2022-12-19T13:03:54.518Z,-4.14
2022-12-19T13:04:58.245Z,-4.26
2022-12-19T13:08:00.100Z,-4.24
2022-12-19T13:10:06.977Z,-4.33
2022-12-19T13:11:06.240Z,-4.34
2022-12-19T13:12:13.083Z,-4.37
2022-12-19T13:13:14.518Z,-4.4
2022-12-19T13:17:19.893Z,-4.43
2022-12-19T13:18:31.204Z,-4.5
2022-12-19T13:19:27.961Z,-4.54
2022-12-19T13:21:26.024Z,-4.56
2022-12-19T13:24:37.219Z,-4.64
2022-12-19T13:27:37.483Z,-4.74
2022-12-19T13:28:39.044Z,-4.75
2022-12-19T13:31:39.652Z,-4.89
2022-12-19T13:36:29.629Z,-5.11
2022-12-19T13:39:51.037Z,-5.15
2022-12-19T13:39:57.112Z,-5.19
2022-12-19T13:41:00.534Z,-5.27
2022-12-19T13:44:01.876Z,-5.29
2022-12-19T13:45:04.939Z,-5.33
2022-12-19T13:46:03.650Z,-5.37
2022-12-19T13:47:02.300Z,-5.36
2022-12-19T13:48:03.262Z,-5.39
2022-12-19T13:49:03.869Z,-5.39
2022-12-19T13:51:08.192Z,-5.51
2022-12-19T13:52:07.028Z,-5.55
2022-12-19T13:55:13.182Z,-5.61
2022-12-19T13:56:14.589Z,-5.59
2022-12-19T13:59:16.843Z,-5.66
2022-12-19T14:00:18.038Z,-5.7
2022-12-19T14:01:21.186Z,-5.68
2022-12-19T14:03:22.848Z,-5.72
2022-12-19T14:06:26.074Z,-5.99
2022-12-19T14:08:29.299Z,-6.09
2022-12-19T14:11:32.839Z,-6.16
2022-12-19T14:11:38.339Z,-6.19
2022-12-19T14:14:00.452Z,-6.4
2022-12-19T14:14:00.504Z,-6.28
2022-12-19T14:15:46.063Z,-6.43
2022-12-19T14:16:49.045Z,-6.44
2022-12-19T14:17:49.293Z,-6.47
2022-12-19T14:18:49.600Z,-6.51
2022-12-19T14:19:50.447Z,-6.52
2022-12-19T14:22:04.658Z,-6.57
2022-12-19T14:22:09.607Z,-6.55
2022-12-19T14:25:52.309Z,-6.59
2022-12-19T14:28:20.291Z,-6.6
2022-12-19T14:28:23.674Z,-6.52
2022-12-19T14:31:19.234Z,-6.62
2022-12-19T14:33:40.544Z,-6.58
2022-12-19T14:33:45.481Z,-6.6
2022-12-19T14:36:10.526Z,-6.64
2022-12-19T14:36:32.454Z,-6.68
2022-12-19T14:39:19.586Z,-6.68
2022-12-19T14:39:22.317Z,-6.71
2022-12-19T14:39:36.060Z,-6.7
2022-12-19T14:40:43.295Z,-6.8
2022-12-19T14:43:55.529Z,-6.91
2022-12-19T14:52:53.601Z,-7.07
2022-12-19T14:54:08.204Z,-7.11
2022-12-19T14:54:15.866Z,-7.12
2022-12-19T14:54:23.151Z,-7.17
2022-12-19T14:54:40.845Z,-7.32
2022-12-19T14:57:15.795Z,-7.34
2022-12-19T14:58:52.379Z,-7.46
2022-12-19T15:01:25.896Z,-7.54
2022-12-19T15:02:28.144Z,-7.56
2022-12-19T15:03:26.603Z,-7.58
2022-12-19T15:04:53.369Z,-7.64
2022-12-19T15:05:27.392Z,-7.67
2022-12-19T15:07:07.384Z,-7.7
2022-12-19T15:07:31.606Z,-7.67
2022-12-19T15:09:50.577Z,-7.67
2022-12-19T15:10:58.596Z,-7.7
2022-12-19T15:11:06.385Z,-7.76
2022-12-19T15:11:53.852Z,-7.78
2022-12-19T15:14:54.392Z,-7.81
2022-12-19T15:14:59.312Z,-7.78
2022-12-19T15:15:55.580Z,-7.88
2022-12-19T15:17:54.790Z,-7.9
2022-12-19T15:18:55.184Z,-7.89
2022-12-19T15:19:54.618Z,-7.93
2022-12-19T15:20:54.507Z,-7.94
2022-12-19T15:21:53.306Z,-7.96
2022-12-19T15:22:53.282Z,-7.93
2022-12-19T15:23:53.424Z,-7.96
2022-12-19T15:24:53.407Z,-7.94
2022-12-19T15:26:03.817Z,-7.95
2022-12-19T15:26:56.279Z,-7.98
2022-12-19T15:27:56.211Z,-7.98
2022-12-19T15:28:56.982Z,-8
2022-12-19T15:29:57.075Z,-8
2022-12-19T15:31:01.100Z,-7.93
2022-12-19T15:31:57.550Z,-8
2022-12-19T15:32:57.475Z,-8
2022-12-19T15:34:59.147Z,-7.98
2022-12-19T15:35:59.235Z,-7.98
2022-12-19T15:36:59.098Z,-8
2022-12-19T15:37:59.119Z,-8.02
2022-12-19T15:38:59.193Z,-8.04
2022-12-19T15:39:59.302Z,-8.05
2022-12-19T15:40:59.163Z,-8.04
2022-12-19T15:41:59.866Z,-8.07
2022-12-19T15:42:59.781Z,-8.03
2022-12-19T15:44:04.157Z,-8.01
2022-12-19T15:45:01.091Z,-8.06
2022-12-19T15:46:01.016Z,-8.08
2022-12-19T15:47:02.192Z,-8.1
2022-12-19T15:48:01.051Z,-8.06
2022-12-19T15:49:01.165Z,-8.08
2022-12-19T15:50:01.813Z,-8.11
2022-12-19T15:51:01.074Z,-8.1
2022-12-19T15:52:01.093Z,-8.1
2022-12-19T15:53:02.042Z,-8.08
2022-12-19T15:54:38.226Z,-8.09
2022-12-19T15:55:02.265Z,-8.06
2022-12-19T15:56:02.670Z,-8.12
2022-12-19T15:57:02.280Z,-8.08
2022-12-19T15:58:04.598Z,-8.11
2022-12-19T15:59:02.608Z,-8.12
2022-12-19T16:00:04.955Z,-8.08
2022-12-19T16:01:04.039Z,-8.07
2022-12-19T16:02:03.180Z,-8.14
2022-12-19T16:04:04.127Z,-8.09
2022-12-19T16:05:04.782Z,-8.13
2022-12-19T16:06:03.673Z,-8.11
2022-12-19T16:10:11.382Z,-8.15
2022-12-19T16:11:18.554Z,-8.11
2022-12-19T16:12:16.732Z,-8.13
2022-12-19T16:13:18.195Z,-8.13
2022-12-19T16:14:15.601Z,-8.19
2022-12-19T16:15:17.686Z,-8.14
2022-12-19T16:16:16.206Z,-8.12
2022-12-19T16:17:19.073Z,-8.11
2022-12-19T16:18:15.921Z,-8.1
2022-12-19T16:19:26.229Z,-8.08
2022-12-19T16:20:22.861Z,-8.06
2022-12-19T16:21:23.648Z,-8.09
2022-12-19T16:22:25.383Z,-8.06
2022-12-19T16:23:24.113Z,-8.05
2022-12-19T16:24:24.375Z,-8.05
2022-12-19T16:25:26.947Z,-8.13
2022-12-19T16:26:29.892Z,-8.1
2022-12-19T16:27:30.605Z,-8.08
2022-12-19T16:28:30.944Z,-8.09
2022-12-19T16:29:29.187Z,-8.11
2022-12-19T16:30:32.183Z,-8.07
2022-12-19T16:31:28.966Z,-8.06
2022-12-19T16:32:28.983Z,-8.1
2022-12-19T16:33:30.025Z,-8.1